Impacts METAR Board
IDs:

KSFO - San Francisco Intl, CA, US

Updated at: 1800 UTC 24 Jun 2018
Potential Impact None Slight Moderate High
Time 24/06Z 24/07Z 24/08Z 24/09Z 24/10Z 24/11Z 24/12Z 24/13Z 24/14Z 24/15Z 24/16Z 24/17Z 24/18Z
Temp67 67 65 62 62 62 64 63 64 67 68 70 71
Dewpt56 56 53 52 51 52 55 53 53 54 56 56 57
Altim29.76 29.77 29.77 29.77 29.77 29.78 29.79 29.80 29.81 29.83 29.85 29.86 29.86
VIS10 10 10 10 10 10 10 10 10 10 10 10 10
CIG-- -- -- -- -- -- -- -- -- -- -- -- --
CoverCLRCLRCLRCLRCLRCLRCLRFEWFEWFEWFEWFEWFEW
FltCatVFRVFRVFRVFRVFRVFRVFRVFRVFRVFRVFRVFRVFR
WX--------------------------
WDir1020300280280080150040305040
WSpd5 5 6 7 6 0 5 4 0 3 6 5 7
WGst-- -- -- -- -- -- -- -- -- -- -- -- --
Raw hourly METARs
KSFO 240556Z 01005KT 10SM CLR 19/13 A2976 RMK AO2 SLP077 T01940133 10278 20189 51017
KSFO 240656Z 02005KT 10SM CLR 19/13 A2977 RMK AO2 SLP080 T01940133
KSFO 240756Z 30006KT 10SM CLR 18/12 A2977 RMK AO2 SLP080 T01830117 403110150
KSFO 240856Z 28007KT 10SM CLR 17/11 A2977 RMK AO2 SLP081 T01670111 51004
KSFO 240956Z 28006KT 10SM CLR 17/11 A2977 RMK AO2 SLP082 T01670106
KSFO 241056Z 00000KT 10SM CLR 17/11 A2978 RMK AO2 SLP083 T01670111
KSFO 241156Z 08005KT 10SM CLR 18/13 A2979 RMK AO2 SLP086 T01780128 10194 20167 53005
KSFO 241256Z 15004KT 10SM FEW012 17/12 A2980 RMK AO2 SLP091 T01720117
KSFO 241356Z 00000KT 10SM FEW011 18/12 A2981 RMK AO2 SLP095 T01780117
KSFO 241456Z 04003KT 10SM FEW011 19/12 A2983 RMK AO2 SLP101 T01940122 53016
KSFO 241556Z 03006KT 10SM FEW011 20/13 A2985 RMK AO2 SLP107 T02000133
KSFO 241656Z 05005KT 10SM FEW013 21/13 A2986 RMK AO2 SLP111 T02110133
KSFO 241756Z 04007KT 10SM FEW013 22/14 A2986 RMK AO2 SLP112 T02170139 10217 20172 51011



Page loaded:  18:13 UTC  |   11:13 AM Pacific  |   12:13 PM Mountain  |   01:13 PM Central  |   02:13 PM Eastern

 

ADVISORIES

FORECASTS

FORECASTS

OBSERVATIONS

USER TOOLS

ABOUT US